Terminal Aerodrome Forecast
Issued by NWS

Current Version | Previous Version | Graphics & Text | Print | Product List | Glossary On
Versions: 1 2 3 4 5 6 7 8 9 10 11 12 13 14
589
FTUS41 KPBZ 050536
TAFMGW
TAF
KMGW 050536Z 0506/0606 30006KT P6SM SCT025 OVC035
     FM051500 29008KT P6SM SCT050=

USA.gov is the U.S. government's official web portal to all federal, state and local government web resources and services.